Garvin, Oklahoma
Current Conditions -  °F | °C
As of 12:55 AM on Friday 28 Nov 2014 (Local Time) from K4O4 Reporting Station
Clear Clear  
Wind Chill: 31°   Ceiling: Unl
Heat Index: 36°   Visibility: 10mi
Dew Point: 30°   Wind: 6mph
Humidity: 81%   Direction: 90°E
Pressure: 30.37"   Gusts: NA
Location:  33.95°N, 94.94°W
Report Text: K4O4 280655Z AUTO 09005KT 10SM CLR 02/M01 A3037 RMK AO2
Loading
Personal Weather Stations






























Interactive Weather Map New forecast layout! Learn more

10-Day Weather Forecast

Advertisements
Track Severe Weather on mobile